sensor_id;sensor_type;location;lat;lon;timestamp;pressure;altitude;pressure_sealevel;temperature;humidity
38900;BME280;24660;43.238;26.576;2022-12-28T00:02:06;100314.38;;;9.14;100.00
38900;BME280;24660;43.238;26.576;2022-12-28T00:04:31;100317.88;;;9.01;100.00
38900;BME280;24660;43.238;26.576;2022-12-28T00:06:57;100318.78;;;9.15;100.00
38900;BME280;24660;43.238;26.576;2022-12-28T00:09:23;100334.00;;;9.13;100.00
38900;BME280;24660;43.238;26.576;2022-12-28T00:11:49;100329.25;;;9.04;100.00
38900;BME280;24660;43.238;26.576;2022-12-28T00:14:14;100338.31;;;9.16;100.00
38900;BME280;24660;43.238;26.576;2022-12-28T00:16:40;100342.59;;;9.18;100.00
38900;BME280;24660;43.238;26.576;2022-12-28T00:19:09;100341.25;;;9.11;100.00
38900;BME280;24660;43.238;26.576;2022-12-28T00:21:35;100351.72;;;9.14;100.00
38900;BME280;24660;43.238;26.576;2022-12-28T00:24:01;100364.16;;;9.00;100.00
38900;BME280;24660;43.238;26.576;2022-12-28T00:26:27;100363.31;;;8.99;100.00
38900;BME280;24660;43.238;26.576;2022-12-28T00:28:53;100366.09;;;9.12;100.00
38900;BME280;24660;43.238;26.576;2022-12-28T00:31:18;100380.88;;;9.03;100.00
38900;BME280;24660;43.238;26.576;2022-12-28T00:33:43;100382.69;;;9.03;100.00
38900;BME280;24660;43.238;26.576;2022-12-28T00:36:10;100387.97;;;8.88;100.00
38900;BME280;24660;43.238;26.576;2022-12-28T00:38:36;100395.31;;;8.99;100.00
38900;BME280;24660;43.238;26.576;2022-12-28T00:41:02;100398.97;;;8.82;100.00
38900;BME280;24660;43.238;26.576;2022-12-28T00:43:28;100421.78;;;8.88;100.00
38900;BME280;24660;43.238;26.576;2022-12-28T00:45:53;100429.44;;;8.78;100.00
38900;BME280;24660;43.238;26.576;2022-12-28T00:48:19;100431.91;;;8.81;100.00
38900;BME280;24660;43.238;26.576;2022-12-28T00:50:44;100435.72;;;8.77;100.00
38900;BME280;24660;43.238;26.576;2022-12-28T00:53:10;100440.22;;;8.61;100.00
38900;BME280;24660;43.238;26.576;2022-12-28T00:55:35;100441.31;;;8.57;100.00
38900;BME280;24660;43.238;26.576;2022-12-28T00:58:03;100428.25;;;8.37;100.00
38900;BME280;24660;43.238;26.576;2022-12-28T01:00:29;100429.78;;;8.56;100.00
38900;BME280;24660;43.238;26.576;2022-12-28T01:02:54;100435.50;;;8.35;100.00
38900;BME280;24660;43.238;26.576;2022-12-28T01:05:20;100424.72;;;8.20;100.00
38900;BME280;24660;43.238;26.576;2022-12-28T01:07:46;100422.19;;;8.01;100.00
38900;BME280;24660;43.238;26.576;2022-12-28T01:10:11;100425.75;;;7.85;100.00
38900;BME280;24660;43.238;26.576;2022-12-28T01:12:37;100427.94;;;7.94;100.00
38900;BME280;24660;43.238;26.576;2022-12-28T01:15:02;100422.13;;;7.70;100.00
38900;BME280;24660;43.238;26.576;2022-12-28T01:17:28;100426.63;;;7.52;100.00
38900;BME280;24660;43.238;26.576;2022-12-28T01:19:54;100430.84;;;7.56;100.00
38900;BME280;24660;43.238;26.576;2022-12-28T01:22:19;100435.25;;;7.40;100.00
38900;BME280;24660;43.238;26.576;2022-12-28T01:24:44;100432.00;;;7.68;100.00
38900;BME280;24660;43.238;26.576;2022-12-28T01:27:09;100431.69;;;7.57;100.00
38900;BME280;24660;43.238;26.576;2022-12-28T01:29:35;100439.53;;;7.93;100.00
38900;BME280;24660;43.238;26.576;2022-12-28T01:32:00;100423.16;;;7.67;100.00
38900;BME280;24660;43.238;26.576;2022-12-28T01:34:25;100423.41;;;7.45;100.00
38900;BME280;24660;43.238;26.576;2022-12-28T01:36:51;100427.25;;;7.40;100.00
38900;BME280;24660;43.238;26.576;2022-12-28T01:39:16;100430.06;;;7.54;100.00
38900;BME280;24660;43.238;26.576;2022-12-28T01:41:41;100444.78;;;7.44;100.00
38900;BME280;24660;43.238;26.576;2022-12-28T01:49:02;100444.78;;;6.92;100.00
38900;BME280;24660;43.238;26.576;2022-12-28T01:51:30;100448.00;;;7.16;100.00
38900;BME280;24660;43.238;26.576;2022-12-28T01:53:57;100441.31;;;6.73;100.00
38900;BME280;24660;43.238;26.576;2022-12-28T01:56:25;100446.44;;;6.59;100.00
38900;BME280;24660;43.238;26.576;2022-12-28T01:58:51;100448.16;;;6.60;100.00
38900;BME280;24660;43.238;26.576;2022-12-28T02:01:16;100442.50;;;6.84;100.00
38900;BME280;24660;43.238;26.576;2022-12-28T02:03:42;100452.53;;;6.97;100.00
38900;BME280;24660;43.238;26.576;2022-12-28T02:06:08;100446.69;;;6.90;100.00
38900;BME280;24660;43.238;26.576;2022-12-28T02:08:39;100447.84;;;6.48;100.00
38900;BME280;24660;43.238;26.576;2022-12-28T02:11:07;100447.38;;;6.58;100.00
38900;BME280;24660;43.238;26.576;2022-12-28T02:13:35;100446.59;;;6.55;100.00
38900;BME280;24660;43.238;26.576;2022-12-28T02:16:02;100451.97;;;6.54;100.00
38900;BME280;24660;43.238;26.576;2022-12-28T02:18:28;100450.69;;;6.44;100.00
38900;BME280;24660;43.238;26.576;2022-12-28T02:21:08;100448.19;;;6.41;100.00
38900;BME280;24660;43.238;26.576;2022-12-28T02:23:45;100455.38;;;6.39;100.00
38900;BME280;24660;43.238;26.576;2022-12-28T02:29:07;100465.69;;;6.45;100.00
38900;BME280;24660;43.238;26.576;2022-12-28T02:31:40;100465.59;;;6.65;100.00
38900;BME280;24660;43.238;26.576;2022-12-28T02:36:50;100454.00;;;6.49;100.00
38900;BME280;24660;43.238;26.576;2022-12-28T02:39:19;100459.22;;;6.32;100.00
38900;BME280;24660;43.238;26.576;2022-12-28T02:41:45;100463.50;;;6.72;100.00
38900;BME280;24660;43.238;26.576;2022-12-28T02:44:11;100472.84;;;6.80;100.00
38900;BME280;24660;43.238;26.576;2022-12-28T02:46:36;100465.09;;;6.76;100.00
38900;BME280;24660;43.238;26.576;2022-12-28T02:52:07;100474.03;;;6.73;100.00
38900;BME280;24660;43.238;26.576;2022-12-28T02:54:37;100467.69;;;6.77;100.00
38900;BME280;24660;43.238;26.576;2022-12-28T03:00:06;100478.03;;;6.65;100.00
38900;BME280;24660;43.238;26.576;2022-12-28T03:02:38;100480.75;;;6.63;100.00
38900;BME280;24660;43.238;26.576;2022-12-28T03:07:45;100494.25;;;6.59;100.00
38900;BME280;24660;43.238;26.576;2022-12-28T03:12:55;100486.22;;;6.22;100.00
38900;BME280;24660;43.238;26.576;2022-12-28T03:15:24;100494.56;;;6.34;100.00
38900;BME280;24660;43.238;26.576;2022-12-28T03:18:04;100494.72;;;6.49;100.00
38900;BME280;24660;43.238;26.576;2022-12-28T03:20:47;100494.97;;;6.24;100.00
38900;BME280;24660;43.238;26.576;2022-12-28T03:23:30;100500.44;;;6.21;100.00
38900;BME280;24660;43.238;26.576;2022-12-28T03:26:11;100510.59;;;6.12;100.00
38900;BME280;24660;43.238;26.576;2022-12-28T03:28:52;100518.19;;;6.01;100.00
38900;BME280;24660;43.238;26.576;2022-12-28T03:31:34;100520.56;;;5.86;100.00
38900;BME280;24660;43.238;26.576;2022-12-28T03:34:00;100528.06;;;5.77;100.00
38900;BME280;24660;43.238;26.576;2022-12-28T03:36:42;100534.75;;;5.85;100.00
38900;BME280;24660;43.238;26.576;2022-12-28T03:39:14;100533.56;;;5.72;100.00
38900;BME280;24660;43.238;26.576;2022-12-28T03:41:46;100541.47;;;5.74;100.00
38900;BME280;24660;43.238;26.576;2022-12-28T03:44:16;100557.91;;;5.82;100.00
38900;BME280;24660;43.238;26.576;2022-12-28T03:49:10;100549.97;;;5.82;100.00
38900;BME280;24660;43.238;26.576;2022-12-28T03:51:36;100555.34;;;6.01;100.00
38900;BME280;24660;43.238;26.576;2022-12-28T03:54:01;100562.00;;;5.89;100.00
38900;BME280;24660;43.238;26.576;2022-12-28T03:56:27;100567.25;;;5.70;100.00
38900;BME280;24660;43.238;26.576;2022-12-28T03:58:53;100559.72;;;5.81;100.00
38900;BME280;24660;43.238;26.576;2022-12-28T04:01:19;100562.28;;;5.83;100.00
38900;BME280;24660;43.238;26.576;2022-12-28T04:03:44;100559.88;;;5.77;100.00
38900;BME280;24660;43.238;26.576;2022-12-28T04:06:11;100561.06;;;5.91;100.00
38900;BME280;24660;43.238;26.576;2022-12-28T04:08:37;100573.44;;;6.11;100.00
38900;BME280;24660;43.238;26.576;2022-12-28T04:11:02;100579.50;;;5.94;100.00
38900;BME280;24660;43.238;26.576;2022-12-28T04:13:29;100577.00;;;5.91;100.00
38900;BME280;24660;43.238;26.576;2022-12-28T04:15:55;100581.59;;;5.86;100.00
38900;BME280;24660;43.238;26.576;2022-12-28T04:18:21;100579.66;;;5.91;100.00
38900;BME280;24660;43.238;26.576;2022-12-28T04:20:46;100582.00;;;5.77;100.00
38900;BME280;24660;43.238;26.576;2022-12-28T04:23:11;100583.47;;;5.64;100.00
38900;BME280;24660;43.238;26.576;2022-12-28T04:25:37;100579.00;;;5.64;100.00
38900;BME280;24660;43.238;26.576;2022-12-28T04:28:02;100572.03;;;5.82;100.00
38900;BME280;24660;43.238;26.576;2022-12-28T04:30:27;100567.44;;;6.08;100.00
38900;BME280;24660;43.238;26.576;2022-12-28T04:32:53;100563.09;;;6.05;100.00
38900;BME280;24660;43.238;26.576;2022-12-28T04:35:19;100563.59;;;5.94;100.00
38900;BME280;24660;43.238;26.576;2022-12-28T04:37:44;100571.84;;;5.87;100.00
38900;BME280;24660;43.238;26.576;2022-12-28T04:40:10;100577.75;;;5.73;100.00
38900;BME280;24660;43.238;26.576;2022-12-28T04:42:35;100571.50;;;5.74;100.00
38900;BME280;24660;43.238;26.576;2022-12-28T04:45:00;100587.19;;;5.80;100.00
38900;BME280;24660;43.238;26.576;2022-12-28T04:47:26;100577.81;;;5.51;100.00
38900;BME280;24660;43.238;26.576;2022-12-28T04:49:52;100593.22;;;5.63;100.00
38900;BME280;24660;43.238;26.576;2022-12-28T04:52:17;100596.75;;;5.62;100.00
38900;BME280;24660;43.238;26.576;2022-12-28T04:54:42;100595.31;;;5.55;100.00
38900;BME280;24660;43.238;26.576;2022-12-28T04:57:07;100598.31;;;5.68;100.00
38900;BME280;24660;43.238;26.576;2022-12-28T04:59:33;100610.50;;;5.72;100.00
38900;BME280;24660;43.238;26.576;2022-12-28T05:01:58;100612.72;;;5.41;100.00
38900;BME280;24660;43.238;26.576;2022-12-28T05:04:23;100624.84;;;5.46;100.00
38900;BME280;24660;43.238;26.576;2022-12-28T05:06:49;100624.91;;;5.66;100.00
38900;BME280;24660;43.238;26.576;2022-12-28T05:09:14;100623.19;;;5.86;100.00
38900;BME280;24660;43.238;26.576;2022-12-28T05:11:39;100619.09;;;5.79;100.00
38900;BME280;24660;43.238;26.576;2022-12-28T05:14:05;100623.69;;;5.74;100.00
38900;BME280;24660;43.238;26.576;2022-12-28T05:16:30;100637.03;;;5.94;100.00
38900;BME280;24660;43.238;26.576;2022-12-28T05:18:55;100637.97;;;5.71;100.00
38900;BME280;24660;43.238;26.576;2022-12-28T05:21:22;100635.16;;;5.96;100.00
38900;BME280;24660;43.238;26.576;2022-12-28T05:23:48;100636.59;;;5.83;100.00
38900;BME280;24660;43.238;26.576;2022-12-28T05:26:15;100636.91;;;5.75;100.00
38900;BME280;24660;43.238;26.576;2022-12-28T05:28:40;100634.88;;;5.60;100.00
38900;BME280;24660;43.238;26.576;2022-12-28T05:31:07;100636.81;;;5.56;100.00
38900;BME280;24660;43.238;26.576;2022-12-28T05:33:34;100645.19;;;5.68;100.00
38900;BME280;24660;43.238;26.576;2022-12-28T05:38:40;100645.31;;;5.43;100.00
38900;BME280;24660;43.238;26.576;2022-12-28T05:41:06;100650.16;;;5.75;100.00
38900;BME280;24660;43.238;26.576;2022-12-28T05:43:32;100653.44;;;5.60;100.00
38900;BME280;24660;43.238;26.576;2022-12-28T05:46:01;100659.13;;;5.73;100.00
38900;BME280;24660;43.238;26.576;2022-12-28T05:48:29;100653.66;;;5.55;100.00
38900;BME280;24660;43.238;26.576;2022-12-28T05:50:57;100660.44;;;5.41;100.00
38900;BME280;24660;43.238;26.576;2022-12-28T05:53:22;100661.25;;;5.64;100.00
38900;BME280;24660;43.238;26.576;2022-12-28T05:55:47;100657.44;;;5.50;100.00
38900;BME280;24660;43.238;26.576;2022-12-28T05:58:12;100666.97;;;5.54;100.00
38900;BME280;24660;43.238;26.576;2022-12-28T06:00:38;100662.72;;;5.50;100.00
38900;BME280;24660;43.238;26.576;2022-12-28T06:03:03;100670.28;;;5.59;100.00
38900;BME280;24660;43.238;26.576;2022-12-28T06:05:28;100669.69;;;5.52;100.00
38900;BME280;24660;43.238;26.576;2022-12-28T06:07:54;100662.75;;;5.48;100.00
38900;BME280;24660;43.238;26.576;2022-12-28T06:10:19;100661.59;;;5.55;100.00
38900;BME280;24660;43.238;26.576;2022-12-28T06:12:44;100668.09;;;5.92;100.00
38900;BME280;24660;43.238;26.576;2022-12-28T06:15:09;100667.22;;;5.70;100.00
38900;BME280;24660;43.238;26.576;2022-12-28T06:17:35;100674.81;;;5.35;100.00
38900;BME280;24660;43.238;26.576;2022-12-28T06:20:00;100670.38;;;5.35;100.00
38900;BME280;24660;43.238;26.576;2022-12-28T06:22:26;100670.31;;;5.37;100.00
38900;BME280;24660;43.238;26.576;2022-12-28T06:24:51;100667.66;;;5.37;100.00
38900;BME280;24660;43.238;26.576;2022-12-28T06:27:16;100671.31;;;5.77;100.00
38900;BME280;24660;43.238;26.576;2022-12-28T06:29:42;100671.75;;;5.88;100.00
38900;BME280;24660;43.238;26.576;2022-12-28T06:32:07;100679.41;;;5.74;100.00
38900;BME280;24660;43.238;26.576;2022-12-28T06:34:32;100680.31;;;5.52;100.00
38900;BME280;24660;43.238;26.576;2022-12-28T06:36:57;100681.03;;;5.56;100.00
38900;BME280;24660;43.238;26.576;2022-12-28T06:39:24;100673.88;;;5.36;100.00
38900;BME280;24660;43.238;26.576;2022-12-28T06:41:49;100677.75;;;5.27;100.00
38900;BME280;24660;43.238;26.576;2022-12-28T06:44:14;100684.78;;;5.28;100.00
38900;BME280;24660;43.238;26.576;2022-12-28T06:46:40;100685.41;;;5.57;100.00
38900;BME280;24660;43.238;26.576;2022-12-28T06:49:05;100681.47;;;5.45;100.00
38900;BME280;24660;43.238;26.576;2022-12-28T06:51:31;100675.94;;;5.51;100.00
38900;BME280;24660;43.238;26.576;2022-12-28T06:54:00;100677.16;;;5.64;100.00
38900;BME280;24660;43.238;26.576;2022-12-28T06:56:27;100681.88;;;5.34;100.00
38900;BME280;24660;43.238;26.576;2022-12-28T06:58:53;100680.34;;;5.73;100.00
38900;BME280;24660;43.238;26.576;2022-12-28T07:01:19;100686.38;;;6.18;100.00
38900;BME280;24660;43.238;26.576;2022-12-28T07:03:46;100683.44;;;6.06;100.00
38900;BME280;24660;43.238;26.576;2022-12-28T07:06:12;100694.22;;;6.42;100.00
38900;BME280;24660;43.238;26.576;2022-12-28T07:08:38;100692.00;;;6.72;100.00
38900;BME280;24660;43.238;26.576;2022-12-28T07:11:04;100687.47;;;6.74;100.00
38900;BME280;24660;43.238;26.576;2022-12-28T07:13:30;100689.19;;;6.36;100.00
38900;BME280;24660;43.238;26.576;2022-12-28T07:15:56;100690.78;;;6.40;100.00
38900;BME280;24660;43.238;26.576;2022-12-28T07:18:21;100696.03;;;6.21;100.00
38900;BME280;24660;43.238;26.576;2022-12-28T07:20:46;100703.41;;;6.35;100.00
38900;BME280;24660;43.238;26.576;2022-12-28T07:23:12;100706.94;;;6.35;100.00
38900;BME280;24660;43.238;26.576;2022-12-28T07:25:37;100699.22;;;6.49;100.00
38900;BME280;24660;43.238;26.576;2022-12-28T07:28:03;100709.25;;;6.63;100.00
38900;BME280;24660;43.238;26.576;2022-12-28T07:30:28;100718.16;;;6.62;100.00
38900;BME280;24660;43.238;26.576;2022-12-28T07:32:53;100715.56;;;6.40;100.00
38900;BME280;24660;43.238;26.576;2022-12-28T07:35:19;100722.72;;;6.59;100.00
38900;BME280;24660;43.238;26.576;2022-12-28T07:37:44;100717.00;;;6.68;100.00
38900;BME280;24660;43.238;26.576;2022-12-28T07:40:10;100722.78;;;6.57;100.00
38900;BME280;24660;43.238;26.576;2022-12-28T07:42:35;100719.72;;;6.66;100.00
38900;BME280;24660;43.238;26.576;2022-12-28T07:45:00;100731.31;;;6.84;100.00
38900;BME280;24660;43.238;26.576;2022-12-28T07:47:26;100725.94;;;6.85;100.00
38900;BME280;24660;43.238;26.576;2022-12-28T07:49:51;100728.81;;;6.81;100.00
38900;BME280;24660;43.238;26.576;2022-12-28T07:52:16;100728.88;;;6.79;100.00
38900;BME280;24660;43.238;26.576;2022-12-28T07:54:42;100732.06;;;6.47;100.00
38900;BME280;24660;43.238;26.576;2022-12-28T07:57:07;100733.63;;;6.52;100.00
38900;BME280;24660;43.238;26.576;2022-12-28T07:59:32;100731.50;;;6.40;100.00
38900;BME280;24660;43.238;26.576;2022-12-28T08:01:58;100726.38;;;6.36;100.00
38900;BME280;24660;43.238;26.576;2022-12-28T08:04:24;100748.50;;;6.36;100.00
38900;BME280;24660;43.238;26.576;2022-12-28T08:06:49;100738.63;;;6.18;100.00
38900;BME280;24660;43.238;26.576;2022-12-28T08:09:14;100742.75;;;6.25;100.00
38900;BME280;24660;43.238;26.576;2022-12-28T08:11:41;100741.31;;;6.38;100.00
38900;BME280;24660;43.238;26.576;2022-12-28T08:14:07;100742.91;;;6.42;100.00
38900;BME280;24660;43.238;26.576;2022-12-28T08:16:34;100740.78;;;6.50;100.00
38900;BME280;24660;43.238;26.576;2022-12-28T08:19:00;100748.41;;;6.58;100.00
38900;BME280;24660;43.238;26.576;2022-12-28T08:23:52;100732.03;;;6.48;100.00
38900;BME280;24660;43.238;26.576;2022-12-28T08:26:19;100732.81;;;6.30;100.00
38900;BME280;24660;43.238;26.576;2022-12-28T08:28:45;100735.94;;;6.40;100.00
38900;BME280;24660;43.238;26.576;2022-12-28T08:31:12;100733.53;;;6.54;100.00
38900;BME280;24660;43.238;26.576;2022-12-28T08:33:37;100740.47;;;6.97;100.00
38900;BME280;24660;43.238;26.576;2022-12-28T08:36:03;100721.06;;;7.14;100.00
38900;BME280;24660;43.238;26.576;2022-12-28T08:38:28;100723.31;;;7.04;100.00
38900;BME280;24660;43.238;26.576;2022-12-28T08:40:55;100710.38;;;6.97;100.00
38900;BME280;24660;43.238;26.576;2022-12-28T08:43:21;100722.94;;;7.12;100.00
38900;BME280;24660;43.238;26.576;2022-12-28T08:45:55;100718.44;;;7.33;97.39
38900;BME280;24660;43.238;26.576;2022-12-28T08:48:20;100724.75;;;7.30;97.91
38900;BME280;24660;43.238;26.576;2022-12-28T08:50:45;100720.88;;;7.37;99.06
38900;BME280;24660;43.238;26.576;2022-12-28T08:53:11;100719.06;;;7.57;99.89
38900;BME280;24660;43.238;26.576;2022-12-28T08:55:36;100709.28;;;7.57;96.51
38900;BME280;24660;43.238;26.576;2022-12-28T08:58:01;100711.91;;;7.76;93.02
38900;BME280;24660;43.238;26.576;2022-12-28T09:00:26;100701.56;;;7.70;88.74
38900;BME280;24660;43.238;26.576;2022-12-28T09:02:52;100705.31;;;7.66;87.71
38900;BME280;24660;43.238;26.576;2022-12-28T09:05:17;100704.81;;;7.58;90.44
38900;BME280;24660;43.238;26.576;2022-12-28T09:07:42;100709.66;;;7.86;87.66
38900;BME280;24660;43.238;26.576;2022-12-28T09:10:08;100704.31;;;7.86;88.48
38900;BME280;24660;43.238;26.576;2022-12-28T09:12:33;100699.78;;;7.88;89.49
38900;BME280;24660;43.238;26.576;2022-12-28T09:14:58;100697.13;;;7.88;88.92
38900;BME280;24660;43.238;26.576;2022-12-28T09:17:24;100698.44;;;7.79;86.91
38900;BME280;24660;43.238;26.576;2022-12-28T09:19:49;100696.34;;;7.86;91.69
38900;BME280;24660;43.238;26.576;2022-12-28T09:22:14;100696.81;;;7.77;91.65
38900;BME280;24660;43.238;26.576;2022-12-28T09:24:39;100687.63;;;7.65;93.15
38900;BME280;24660;43.238;26.576;2022-12-28T09:27:05;100683.78;;;7.70;93.47
38900;BME280;24660;43.238;26.576;2022-12-28T09:29:30;100680.59;;;7.81;91.05
38900;BME280;24660;43.238;26.576;2022-12-28T09:31:55;100680.78;;;7.59;93.02
38900;BME280;24660;43.238;26.576;2022-12-28T09:34:21;100678.28;;;7.92;94.33
38900;BME280;24660;43.238;26.576;2022-12-28T09:36:47;100686.50;;;8.05;92.51
38900;BME280;24660;43.238;26.576;2022-12-28T09:39:14;100674.91;;;8.06;90.59
38900;BME280;24660;43.238;26.576;2022-12-28T09:41:49;100684.88;;;8.37;92.05
38900;BME280;24660;43.238;26.576;2022-12-28T09:44:18;100673.88;;;8.43;92.34
38900;BME280;24660;43.238;26.576;2022-12-28T09:46:55;100666.31;;;8.36;91.50
38900;BME280;24660;43.238;26.576;2022-12-28T09:49:23;100668.72;;;8.40;92.05
38900;BME280;24660;43.238;26.576;2022-12-28T09:51:53;100658.22;;;8.20;92.88
38900;BME280;24660;43.238;26.576;2022-12-28T09:54:22;100650.06;;;8.40;92.60
38900;BME280;24660;43.238;26.576;2022-12-28T09:56:47;100641.78;;;8.46;92.36
38900;BME280;24660;43.238;26.576;2022-12-28T09:59:15;100650.38;;;8.51;92.83
38900;BME280;24660;43.238;26.576;2022-12-28T10:01:43;100643.88;;;8.22;91.93
38900;BME280;24660;43.238;26.576;2022-12-28T10:04:11;100646.22;;;8.28;93.06
38900;BME280;24660;43.238;26.576;2022-12-28T10:06:37;100645.78;;;8.71;91.26
38900;BME280;24660;43.238;26.576;2022-12-28T10:09:04;100643.03;;;8.72;90.15
38900;BME280;24660;43.238;26.576;2022-12-28T10:11:38;100629.78;;;8.71;85.92
38900;BME280;24660;43.238;26.576;2022-12-28T10:16:45;100632.25;;;8.58;88.88
38900;BME280;24660;43.238;26.576;2022-12-28T10:19:13;100633.44;;;8.52;90.25
38900;BME280;24660;43.238;26.576;2022-12-28T10:21:40;100631.16;;;8.62;88.49
38900;BME280;24660;43.238;26.576;2022-12-28T10:24:05;100627.44;;;8.49;88.88
38900;BME280;24660;43.238;26.576;2022-12-28T10:26:32;100635.50;;;8.47;91.03
38900;BME280;24660;43.238;26.576;2022-12-28T10:28:58;100635.47;;;8.80;90.55
38900;BME280;24660;43.238;26.576;2022-12-28T10:31:32;100634.41;;;8.67;87.45
38900;BME280;24660;43.238;26.576;2022-12-28T10:33:58;100632.88;;;8.63;90.52
38900;BME280;24660;43.238;26.576;2022-12-28T10:36:23;100629.78;;;8.71;89.22
38900;BME280;24660;43.238;26.576;2022-12-28T10:38:50;100633.75;;;8.79;89.16
38900;BME280;24660;43.238;26.576;2022-12-28T10:41:17;100629.78;;;8.71;87.53
38900;BME280;24660;43.238;26.576;2022-12-28T10:43:43;100636.88;;;8.87;86.07
38900;BME280;24660;43.238;26.576;2022-12-28T10:46:14;100629.19;;;8.81;86.39
38900;BME280;24660;43.238;26.576;2022-12-28T10:48:42;100630.88;;;9.15;83.56
38900;BME280;24660;43.238;26.576;2022-12-28T10:53:48;100637.22;;;9.13;81.74
38900;BME280;24660;43.238;26.576;2022-12-28T10:56:19;100633.97;;;9.08;81.41
38900;BME280;24660;43.238;26.576;2022-12-28T10:58:46;100636.03;;;9.03;82.97
38900;BME280;24660;43.238;26.576;2022-12-28T11:03:38;100629.94;;;9.78;78.00
38900;BME280;24660;43.238;26.576;2022-12-28T11:06:08;100630.41;;;9.39;78.94
38900;BME280;24660;43.238;26.576;2022-12-28T11:08:33;100622.59;;;9.36;80.33
38900;BME280;24660;43.238;26.576;2022-12-28T11:11:00;100622.44;;;8.91;82.20
38900;BME280;24660;43.238;26.576;2022-12-28T11:13:25;100619.34;;;9.15;83.53
38900;BME280;24660;43.238;26.576;2022-12-28T11:15:51;100615.38;;;9.06;84.45
38900;BME280;24660;43.238;26.576;2022-12-28T11:18:17;100622.09;;;9.29;83.93
38900;BME280;24660;43.238;26.576;2022-12-28T11:20:44;100617.00;;;9.25;83.08
38900;BME280;24660;43.238;26.576;2022-12-28T11:23:15;100616.41;;;9.04;83.73
38900;BME280;24660;43.238;26.576;2022-12-28T11:25:42;100612.44;;;9.11;84.93
38900;BME280;24660;43.238;26.576;2022-12-28T11:28:12;100617.19;;;9.06;86.06
38900;BME280;24660;43.238;26.576;2022-12-28T11:30:38;100606.44;;;9.23;86.46
38900;BME280;24660;43.238;26.576;2022-12-28T11:33:03;100610.91;;;9.22;87.05
38900;BME280;24660;43.238;26.576;2022-12-28T11:35:34;100607.53;;;9.35;86.77
38900;BME280;24660;43.238;26.576;2022-12-28T11:38:02;100608.69;;;9.15;87.11
38900;BME280;24660;43.238;26.576;2022-12-28T11:45:50;100597.78;;;9.49;85.63
38900;BME280;24660;43.238;26.576;2022-12-28T11:51:02;100600.47;;;9.34;84.65
38900;BME280;24660;43.238;26.576;2022-12-28T11:53:47;100595.69;;;9.55;83.80
38900;BME280;24660;43.238;26.576;2022-12-28T11:56:13;100598.16;;;9.43;85.05
38900;BME280;24660;43.238;26.576;2022-12-28T12:01:04;100594.69;;;9.57;84.38
38900;BME280;24660;43.238;26.576;2022-12-28T12:06:10;100585.34;;;9.34;82.46
38900;BME280;24660;43.238;26.576;2022-12-28T12:08:37;100579.63;;;9.40;82.80
38900;BME280;24660;43.238;26.576;2022-12-28T12:11:20;100565.84;;;9.78;79.97
38900;BME280;24660;43.238;26.576;2022-12-28T12:13:48;100565.75;;;9.49;80.20
38900;BME280;24660;43.238;26.576;2022-12-28T12:16:23;100565.44;;;9.40;81.27
38900;BME280;24660;43.238;26.576;2022-12-28T12:18:51;100564.44;;;9.57;79.74
38900;BME280;24660;43.238;26.576;2022-12-28T12:21:28;100554.69;;;9.71;79.17
38900;BME280;24660;43.238;26.576;2022-12-28T12:23:56;100553.91;;;9.69;80.51
38900;BME280;24660;43.238;26.576;2022-12-28T12:26:26;100549.22;;;9.59;78.08
38900;BME280;24660;43.238;26.576;2022-12-28T12:31:35;100544.16;;;9.38;79.53
38900;BME280;24660;43.238;26.576;2022-12-28T12:34:04;100543.28;;;9.53;79.87
38900;BME280;24660;43.238;26.576;2022-12-28T12:39:07;100521.03;;;9.83;76.68
38900;BME280;24660;43.238;26.576;2022-12-28T12:41:39;100531.78;;;9.67;77.35
38900;BME280;24660;43.238;26.576;2022-12-28T12:57:13;100529.97;;;9.38;77.41
38900;BME280;24660;43.238;26.576;2022-12-28T13:04:47;100520.75;;;9.43;78.29
38900;BME280;24660;43.238;26.576;2022-12-28T13:07:17;100522.81;;;9.38;79.99
38900;BME280;24660;43.238;26.576;2022-12-28T13:09:44;100526.50;;;9.51;78.12
38900;BME280;24660;43.238;26.576;2022-12-28T13:12:13;100522.72;;;9.40;78.07
38900;BME280;24660;43.238;26.576;2022-12-28T13:14:42;100522.88;;;9.22;78.66
38900;BME280;24660;43.238;26.576;2022-12-28T13:17:09;100525.28;;;9.11;79.20
38900;BME280;24660;43.238;26.576;2022-12-28T13:19:37;100527.97;;;8.96;80.56
38900;BME280;24660;43.238;26.576;2022-12-28T13:22:03;100520.75;;;8.98;81.28
38900;BME280;24660;43.238;26.576;2022-12-28T13:24:29;100530.13;;;9.05;81.61
38900;BME280;24660;43.238;26.576;2022-12-28T13:26:56;100526.22;;;9.10;81.29
38900;BME280;24660;43.238;26.576;2022-12-28T13:29:22;100531.84;;;9.06;81.25
38900;BME280;24660;43.238;26.576;2022-12-28T13:31:49;100524.97;;;9.02;80.84
38900;BME280;24660;43.238;26.576;2022-12-28T13:34:23;100528.56;;;9.01;81.04
38900;BME280;24660;43.238;26.576;2022-12-28T13:36:51;100517.41;;;8.94;81.33
38900;BME280;24660;43.238;26.576;2022-12-28T13:39:18;100522.47;;;8.83;81.61
38900;BME280;24660;43.238;26.576;2022-12-28T13:41:52;100524.28;;;8.82;83.47
38900;BME280;24660;43.238;26.576;2022-12-28T13:47:00;100530.19;;;8.72;82.33
38900;BME280;24660;43.238;26.576;2022-12-28T13:49:27;100528.16;;;8.77;83.77
38900;BME280;24660;43.238;26.576;2022-12-28T13:51:53;100526.28;;;8.63;83.93
38900;BME280;24660;43.238;26.576;2022-12-28T13:54:18;100526.94;;;8.67;83.32
38900;BME280;24660;43.238;26.576;2022-12-28T13:56:44;100527.91;;;8.66;82.40
38900;BME280;24660;43.238;26.576;2022-12-28T13:59:11;100536.25;;;8.59;84.17